createdAt,value
2022-12-09T00:02:06.243Z,31.90
2022-12-09T00:04:35.459Z,33.28
2022-12-09T00:07:03.142Z,31.83
2022-12-09T00:09:30.822Z,31.48
2022-12-09T00:11:58.551Z,32.25
2022-12-09T00:14:26.158Z,31.80
2022-12-09T00:16:53.706Z,30.77
2022-12-09T00:19:21.238Z,30.75
2022-12-09T00:21:48.793Z,33.85
2022-12-09T00:24:16.545Z,36.80
2022-12-09T00:26:44.078Z,33.10
2022-12-09T00:29:12.201Z,32.63
2022-12-09T00:31:40.095Z,31.60
2022-12-09T00:34:11.421Z,31.27
2022-12-09T00:36:40.000Z,31.98
2022-12-09T00:39:07.749Z,31.63
2022-12-09T00:41:35.791Z,31.67
2022-12-09T00:44:04.266Z,30.48
2022-12-09T00:46:32.392Z,31.90
2022-12-09T00:49:00.127Z,32.92
2022-12-09T00:51:27.792Z,32.33
2022-12-09T00:53:56.240Z,31.98
2022-12-09T00:56:29.041Z,34.33
2022-12-09T00:58:58.048Z,33.60
2022-12-09T01:01:27.576Z,31.13
2022-12-09T01:03:55.462Z,32.03
2022-12-09T01:06:25.686Z,33.78
2022-12-09T01:08:54.206Z,31.70
2022-12-09T01:11:25.928Z,33.35
2022-12-09T01:13:54.695Z,33.25
2022-12-09T01:16:27.743Z,34.72
2022-12-09T01:18:59.567Z,32.85
2022-12-09T01:21:30.705Z,33.90
2022-12-09T01:23:58.301Z,32.53
2022-12-09T01:26:26.451Z,32.92
2022-12-09T01:28:55.748Z,31.30
2022-12-09T01:31:24.856Z,32.22
2022-12-09T01:33:55.368Z,32.70
2022-12-09T01:36:26.855Z,32.47
2022-12-09T01:38:55.041Z,31.70
2022-12-09T01:41:23.329Z,31.65
2022-12-09T01:44:14.792Z,32.08
2022-12-09T01:46:43.624Z,32.13
2022-12-09T01:49:19.613Z,33.30
2022-12-09T01:51:54.005Z,33.10
2022-12-09T01:54:22.062Z,34.53
2022-12-09T01:56:50.246Z,33.72
2022-12-09T01:59:18.020Z,34.47
2022-12-09T02:01:50.262Z,32.65
2022-12-09T02:04:18.178Z,34.13
2022-12-09T02:06:46.471Z,32.72
2022-12-09T02:09:15.603Z,32.13
2022-12-09T02:12:01.127Z,33.05
2022-12-09T02:15:01.488Z,32.88
2022-12-09T02:17:37.804Z,32.75
2022-12-09T02:20:10.436Z,31.73
2022-12-09T02:22:54.805Z,30.48
2022-12-09T02:25:34.782Z,29.42
2022-12-09T02:28:12.963Z,29.70
2022-12-09T02:30:57.864Z,29.67
2022-12-09T02:33:30.268Z,24.90
2022-12-09T02:36:05.717Z,27.70
2022-12-09T02:38:34.032Z,27.33
2022-12-09T02:41:22.048Z,23.67
2022-12-09T02:44:03.195Z,23.00
2022-12-09T02:46:36.285Z,25.40
2022-12-09T02:49:08.066Z,23.65
2022-12-09T02:51:42.334Z,23.08
2022-12-09T02:54:16.530Z,23.35
2022-12-09T02:56:53.551Z,22.80
2022-12-09T02:59:22.205Z,21.25
2022-12-09T03:02:18.772Z,22.42
2022-12-09T03:05:04.509Z,23.05
2022-12-09T03:08:15.126Z,22.02
2022-12-09T03:10:59.899Z,22.20
2022-12-09T03:13:47.693Z,22.15
2022-12-09T03:16:44.245Z,22.05
2022-12-09T03:19:23.854Z,23.02
2022-12-09T03:21:56.685Z,22.40
2022-12-09T03:24:53.117Z,22.67
2022-12-09T03:29:55.192Z,22.67
2022-12-09T03:32:26.901Z,22.92
2022-12-09T03:35:01.790Z,22.85
2022-12-09T03:37:32.232Z,23.98
2022-12-09T03:40:01.379Z,23.90
2022-12-09T03:42:39.827Z,25.38
2022-12-09T03:45:11.679Z,25.70
2022-12-09T03:47:40.039Z,27.92
2022-12-09T03:50:09.361Z,26.00
2022-12-09T03:52:51.775Z,25.55
2022-12-09T03:55:33.838Z,27.80
2022-12-09T03:58:03.684Z,28.52
2022-12-09T04:00:31.632Z,28.60
2022-12-09T04:02:59.679Z,28.80
2022-12-09T04:05:27.781Z,27.75
2022-12-09T04:07:55.395Z,27.05
2022-12-09T04:10:23.209Z,26.77
2022-12-09T04:12:51.262Z,27.08
2022-12-09T04:15:18.954Z,27.70
2022-12-09T04:17:46.929Z,27.85
2022-12-09T04:20:14.887Z,27.45
2022-12-09T04:22:43.258Z,27.35
2022-12-09T04:25:11.035Z,27.23
2022-12-09T04:27:38.948Z,26.63
2022-12-09T04:30:07.451Z,28.55
2022-12-09T04:32:35.540Z,28.60
2022-12-09T04:35:03.676Z,26.48
2022-12-09T04:37:31.639Z,26.63
2022-12-09T04:39:59.168Z,26.08
2022-12-09T04:42:28.613Z,25.90
2022-12-09T04:44:56.578Z,25.10
2022-12-09T04:47:24.417Z,24.83
2022-12-09T04:49:52.370Z,24.15
2022-12-09T04:52:21.576Z,23.38
2022-12-09T04:54:51.082Z,22.70
2022-12-09T04:57:19.508Z,21.52
2022-12-09T04:59:47.173Z,19.90
2022-12-09T05:02:14.995Z,20.48
2022-12-09T05:04:43.040Z,19.08
2022-12-09T05:07:11.854Z,19.67
2022-12-09T05:09:39.783Z,17.95
2022-12-09T05:12:08.418Z,18.63
2022-12-09T05:14:36.293Z,17.52
2022-12-09T05:17:30.510Z,18.02
2022-12-09T05:20:17.132Z,16.50
2022-12-09T05:22:47.829Z,16.05
2022-12-09T05:25:15.723Z,16.25
2022-12-09T05:27:43.410Z,15.82
2022-12-09T05:30:11.813Z,16.15
2022-12-09T05:32:39.971Z,16.02
2022-12-09T05:35:08.605Z,15.45
2022-12-09T05:37:36.296Z,17.15
2022-12-09T05:40:06.674Z,16.20
2022-12-09T05:42:40.916Z,16.63
2022-12-09T05:45:09.026Z,16.05
2022-12-09T05:47:37.515Z,16.13
2022-12-09T05:50:08.506Z,15.23
2022-12-09T05:52:37.808Z,17.17
2022-12-09T05:55:07.906Z,16.42
2022-12-09T05:57:37.272Z,15.23
2022-12-09T06:00:06.955Z,15.88
2022-12-09T06:02:40.037Z,16.23
2022-12-09T06:05:08.723Z,15.77
2022-12-09T06:07:36.798Z,16.52
2022-12-09T06:10:05.412Z,16.75
2022-12-09T06:12:33.924Z,15.65
2022-12-09T06:15:02.075Z,14.88
2022-12-09T06:17:30.263Z,14.77
2022-12-09T06:19:58.229Z,14.88
2022-12-09T06:22:25.888Z,14.75
2022-12-09T06:25:07.466Z,15.02
2022-12-09T06:27:35.560Z,15.27
2022-12-09T06:30:03.521Z,15.32
2022-12-09T06:32:32.180Z,15.02
2022-12-09T06:35:00.379Z,15.18
2022-12-09T06:37:35.575Z,14.45
2022-12-09T06:40:05.410Z,14.88
2022-12-09T06:42:33.107Z,15.77
2022-12-09T06:45:00.751Z,15.65
2022-12-09T06:47:28.413Z,15.65
2022-12-09T06:50:04.363Z,16.67
2022-12-09T06:52:34.349Z,15.73
2022-12-09T06:55:53.039Z,16.10
2022-12-09T06:59:03.406Z,16.33
2022-12-09T07:02:19.791Z,15.65
2022-12-09T07:05:15.797Z,16.35
2022-12-09T07:07:52.333Z,15.80
2022-12-09T07:10:21.039Z,16.48
2022-12-09T07:12:49.446Z,16.52
2022-12-09T07:15:17.128Z,16.05
2022-12-09T07:17:44.893Z,16.73
2022-12-09T07:20:13.368Z,16.25
2022-12-09T07:22:41.376Z,16.67
2022-12-09T07:25:09.904Z,16.52
2022-12-09T07:27:38.128Z,15.73
2022-12-09T07:30:06.512Z,16.38
2022-12-09T07:32:34.519Z,16.13
2022-12-09T07:35:02.348Z,16.33
2022-12-09T07:37:30.457Z,16.60
2022-12-09T07:39:58.347Z,17.33
2022-12-09T07:42:26.298Z,16.85
2022-12-09T07:44:55.286Z,17.10
2022-12-09T07:47:23.166Z,17.40
2022-12-09T07:49:51.403Z,17.65
2022-12-09T07:52:19.804Z,16.77
2022-12-09T07:54:47.335Z,16.52
2022-12-09T07:57:15.025Z,16.73
2022-12-09T07:59:43.404Z,16.67
2022-12-09T08:02:11.288Z,16.67
2022-12-09T08:04:39.509Z,17.23
2022-12-09T08:07:07.407Z,17.40
2022-12-09T08:09:35.633Z,16.42
2022-12-09T08:12:03.662Z,18.60
2022-12-09T08:14:31.684Z,17.98
2022-12-09T08:16:59.537Z,18.65
2022-12-09T08:19:27.304Z,17.75
2022-12-09T08:21:55.521Z,18.80
2022-12-09T08:24:23.520Z,17.45
2022-12-09T08:26:51.467Z,18.00
2022-12-09T08:29:20.062Z,17.17
2022-12-09T08:31:48.442Z,16.90
2022-12-09T08:34:16.920Z,18.02
2022-12-09T08:36:45.160Z,17.52
2022-12-09T08:39:14.000Z,17.27
2022-12-09T08:41:43.851Z,19.15
2022-12-09T08:44:42.322Z,20.42
2022-12-09T08:47:13.918Z,21.77
2022-12-09T08:49:41.951Z,21.98
2022-12-09T08:52:10.135Z,22.55
2022-12-09T08:54:38.158Z,20.83
2022-12-09T08:57:05.855Z,20.55
2022-12-09T08:59:33.499Z,19.42
2022-12-09T09:02:01.318Z,17.42
2022-12-09T09:04:31.901Z,18.77
2022-12-09T09:07:00.488Z,18.42
2022-12-09T09:09:28.411Z,16.95
2022-12-09T09:11:56.141Z,14.35
2022-12-09T09:14:24.316Z,15.05
2022-12-09T09:16:52.109Z,13.45
2022-12-09T09:19:23.421Z,14.32
2022-12-09T09:21:51.879Z,13.90
2022-12-09T09:24:23.060Z,13.13
2022-12-09T09:26:52.586Z,13.30
2022-12-09T09:29:22.840Z,12.63
2022-12-09T09:31:54.546Z,12.75
2022-12-09T09:34:23.037Z,12.35
2022-12-09T09:36:51.533Z,13.38
2022-12-09T09:39:20.132Z,13.13
2022-12-09T09:41:51.810Z,12.73
2022-12-09T09:44:19.685Z,12.57
2022-12-09T09:46:49.996Z,12.98
2022-12-09T09:49:46.235Z,12.50
2022-12-09T09:52:19.072Z,11.77
2022-12-09T09:54:47.304Z,11.27
2022-12-09T09:57:17.534Z,11.45
2022-12-09T10:00:09.349Z,9.65
2022-12-09T10:02:48.369Z,9.18
2022-12-09T10:05:32.004Z,8.75
2022-12-09T10:08:29.024Z,7.05
2022-12-09T10:11:06.946Z,6.40
2022-12-09T10:13:45.072Z,5.60
2022-12-09T10:16:25.015Z,6.18
2022-12-09T10:19:09.645Z,5.38
2022-12-09T10:21:42.471Z,5.07
2022-12-09T10:24:40.747Z,4.90
2022-12-09T10:27:16.648Z,4.70
2022-12-09T10:29:56.800Z,4.43
2022-12-09T10:32:30.968Z,4.80
2022-12-09T10:35:00.408Z,4.60
2022-12-09T10:37:34.024Z,4.75
2022-12-09T10:40:07.901Z,5.50
2022-12-09T10:43:08.056Z,5.20
2022-12-09T10:46:16.748Z,5.70
2022-12-09T10:48:40.417Z,5.88
2022-12-09T10:51:14.049Z,6.20
2022-12-09T10:53:54.977Z,6.18
2022-12-09T10:56:29.890Z,4.78
2022-12-09T10:59:27.968Z,5.22
2022-12-09T11:02:20.659Z,4.57
2022-12-09T11:04:49.634Z,4.30
2022-12-09T11:07:23.889Z,4.55
2022-12-09T11:09:54.463Z,4.10
2022-12-09T11:12:30.990Z,4.00
2022-12-09T11:15:26.638Z,3.40
2022-12-09T11:18:02.561Z,3.38
2022-12-09T11:20:34.886Z,3.38
2022-12-09T11:23:17.149Z,3.17
2022-12-09T11:26:06.158Z,2.60
2022-12-09T11:29:04.747Z,2.45
2022-12-09T11:31:41.135Z,2.88
2022-12-09T11:34:25.172Z,2.53
2022-12-09T11:36:56.621Z,2.97
2022-12-09T11:39:31.115Z,2.88
2022-12-09T11:42:20.859Z,3.03
2022-12-09T11:45:01.194Z,3.20
2022-12-09T11:47:50.413Z,3.50
2022-12-09T11:50:24.253Z,2.88
2022-12-09T11:53:11.260Z,3.20
2022-12-09T11:55:46.778Z,4.20
2022-12-09T12:01:06.444Z,4.10
2022-12-09T12:04:10.582Z,3.80
2022-12-09T12:07:05.500Z,4.20
2022-12-09T12:09:54.612Z,3.83
2022-12-09T12:12:43.252Z,3.72
2022-12-09T12:15:17.929Z,3.70
2022-12-09T12:21:30.581Z,5.18
2022-12-09T12:24:22.683Z,4.80
2022-12-09T12:26:55.790Z,16.58
2022-12-09T12:29:39.347Z,19.58
2022-12-09T12:32:24.851Z,97.15
2022-12-09T12:34:58.010Z,98.50
2022-12-09T12:37:34.736Z,71.68
2022-12-09T12:40:27.365Z,50.80
2022-12-09T12:43:47.483Z,10.90
2022-12-09T12:46:34.239Z,10.18
2022-12-09T12:49:16.576Z,9.95
2022-12-09T12:52:03.240Z,10.05
2022-12-09T12:54:58.279Z,11.10
2022-12-09T12:57:47.323Z,11.93
2022-12-09T13:00:22.233Z,15.18
2022-12-09T13:03:18.590Z,18.98
2022-12-09T13:05:52.787Z,10.38
2022-12-09T13:08:46.514Z,13.93
2022-12-09T13:11:20.029Z,12.43
2022-12-09T13:13:53.915Z,9.95
2022-12-09T13:16:28.181Z,10.30
2022-12-09T13:19:06.465Z,8.95
2022-12-09T13:21:34.956Z,5.07
2022-12-09T13:24:26.305Z,4.03
2022-12-09T13:27:06.205Z,4.30
2022-12-09T13:29:58.075Z,3.92
2022-12-09T13:32:28.450Z,4.40
2022-12-09T13:35:06.750Z,4.50
2022-12-09T13:37:55.141Z,4.85
2022-12-09T13:40:28.456Z,5.07
2022-12-09T13:43:20.409Z,5.20
2022-12-09T13:45:54.777Z,7.05
2022-12-09T13:48:22.307Z,6.22
2022-12-09T13:50:49.804Z,4.95
2022-12-09T13:53:20.279Z,6.15
2022-12-09T13:55:59.299Z,5.13
2022-12-09T13:58:33.623Z,5.32
2022-12-09T14:01:13.539Z,5.35
2022-12-09T14:03:56.373Z,5.10
2022-12-09T14:06:30.917Z,5.05
2022-12-09T14:09:39.326Z,4.97
2022-12-09T14:12:14.210Z,5.45
2022-12-09T14:14:51.609Z,5.45
2022-12-09T14:18:41.133Z,5.93
2022-12-09T14:21:20.746Z,5.30
2022-12-09T14:25:03.123Z,4.85
2022-12-09T14:27:32.199Z,4.60
2022-12-09T14:35:04.769Z,5.53
2022-12-09T14:46:25.064Z,5.32
2022-12-09T14:49:25.141Z,5.50
2022-12-09T14:56:50.581Z,4.47
2022-12-09T14:59:34.144Z,4.13
2022-12-09T15:03:08.733Z,4.22
2022-12-09T15:12:46.501Z,4.68
2022-12-09T15:15:41.758Z,4.72
2022-12-09T15:18:24.497Z,5.13
2022-12-09T15:20:55.883Z,4.85
2022-12-09T15:23:47.052Z,5.20
2022-12-09T15:26:25.882Z,5.38
2022-12-09T15:28:56.222Z,6.13
2022-12-09T15:31:27.063Z,6.65
2022-12-09T15:34:08.039Z,6.68
2022-12-09T15:36:40.300Z,6.60
2022-12-09T15:39:53.160Z,6.95
2022-12-09T15:42:27.333Z,7.07
2022-12-09T15:45:11.860Z,8.90
2022-12-09T15:47:43.191Z,9.98
2022-12-09T15:50:22.569Z,10.77
2022-12-09T15:53:02.893Z,11.75
2022-12-09T15:55:38.352Z,8.35
2022-12-09T16:00:42.383Z,8.20
2022-12-09T16:05:41.790Z,7.03
2022-12-09T16:08:10.407Z,6.47
2022-12-09T16:10:56.624Z,4.50
2022-12-09T16:13:27.901Z,4.10
2022-12-09T16:15:58.372Z,3.33
2022-12-09T16:18:46.905Z,3.13
2022-12-09T16:21:40.598Z,2.60
2022-12-09T16:24:13.059Z,2.50
2022-12-09T16:26:46.694Z,2.65
2022-12-09T16:29:28.085Z,2.70
2022-12-09T16:32:20.285Z,3.00
2022-12-09T16:34:52.111Z,4.97
2022-12-09T16:37:32.501Z,2.75
2022-12-09T16:40:03.021Z,2.90
2022-12-09T16:42:36.583Z,3.50
2022-12-09T16:45:31.539Z,7.70
2022-12-09T16:47:59.806Z,5.80
2022-12-09T16:50:33.144Z,7.68
2022-12-09T16:53:16.387Z,11.32
2022-12-09T16:56:01.659Z,16.45
2022-12-09T16:58:31.040Z,11.32
2022-12-09T17:01:00.247Z,7.32
2022-12-09T17:03:40.182Z,6.00
2022-12-09T17:06:10.789Z,6.72
2022-12-09T17:08:38.393Z,5.80
2022-12-09T17:11:06.214Z,3.60
2022-12-09T17:13:34.063Z,3.25
2022-12-09T17:16:01.927Z,2.97
2022-12-09T17:18:29.856Z,2.78
2022-12-09T17:21:13.668Z,2.60
2022-12-09T17:23:46.758Z,2.50
2022-12-09T17:26:16.880Z,2.90
2022-12-09T17:28:45.064Z,2.90
2022-12-09T17:31:15.836Z,3.17
2022-12-09T17:33:43.972Z,5.03
2022-12-09T17:36:13.677Z,5.93
2022-12-09T17:38:41.434Z,4.35
2022-12-09T17:41:13.359Z,3.30
2022-12-09T17:43:40.867Z,2.90
2022-12-09T17:46:10.461Z,2.72
2022-12-09T17:48:40.138Z,2.75
2022-12-09T17:51:10.395Z,2.67
2022-12-09T17:53:40.148Z,2.65
2022-12-09T17:56:26.518Z,3.10
2022-12-09T17:59:29.574Z,2.92
2022-12-09T18:01:57.103Z,3.60
2022-12-09T18:04:24.676Z,3.72
2022-12-09T18:06:52.180Z,4.10
2022-12-09T18:09:20.037Z,4.50
2022-12-09T18:11:48.836Z,4.05
2022-12-09T18:14:16.560Z,3.95
2022-12-09T18:16:46.546Z,3.72
2022-12-09T18:19:16.642Z,4.00
2022-12-09T18:21:45.166Z,3.80
2022-12-09T18:24:13.347Z,3.78
2022-12-09T18:26:42.284Z,7.43
2022-12-09T18:29:11.805Z,7.50
2022-12-09T18:31:39.807Z,9.85
2022-12-09T18:34:07.695Z,8.07
2022-12-09T18:36:35.652Z,7.20
2022-12-09T18:39:04.439Z,5.40
2022-12-09T18:41:31.992Z,4.78
2022-12-09T18:44:03.136Z,3.65
2022-12-09T18:46:36.593Z,3.53
2022-12-09T18:49:11.045Z,4.05
2022-12-09T18:51:39.851Z,3.53
2022-12-09T18:54:08.269Z,6.35
2022-12-09T18:56:37.411Z,4.50
2022-12-09T18:59:06.881Z,4.88
2022-12-09T19:01:39.919Z,5.20
2022-12-09T19:04:23.037Z,7.28
2022-12-09T19:06:52.538Z,9.13
2022-12-09T19:09:25.596Z,11.52
2022-12-09T19:11:53.427Z,10.70
2022-12-09T19:14:23.099Z,10.18
2022-12-09T19:16:52.115Z,9.93
2022-12-09T19:19:26.122Z,11.73
2022-12-09T19:21:54.811Z,45.80
2022-12-09T19:24:25.811Z,11.85
2022-12-09T19:26:55.063Z,10.60
2022-12-09T19:29:24.793Z,9.65
2022-12-09T19:31:53.870Z,10.25
2022-12-09T19:34:24.679Z,9.30
2022-12-09T19:36:54.469Z,7.68
2022-12-09T19:39:24.294Z,6.47
2022-12-09T19:41:51.985Z,5.80
2022-12-09T19:44:44.165Z,5.10
2022-12-09T19:47:08.507Z,5.55
2022-12-09T19:49:36.387Z,24.52
2022-12-09T19:52:04.091Z,15.90
2022-12-09T19:54:31.836Z,9.52
2022-12-09T19:56:59.579Z,11.13
2022-12-09T19:59:27.891Z,11.95
2022-12-09T20:01:55.813Z,12.93
2022-12-09T20:04:48.032Z,26.05
2022-12-09T20:07:13.230Z,13.23
2022-12-09T20:09:40.833Z,13.13
2022-12-09T20:12:08.555Z,48.63
2022-12-09T20:14:36.246Z,41.78
2022-12-09T20:17:03.843Z,65.28
2022-12-09T20:19:31.615Z,47.88
2022-12-09T20:21:59.257Z,96.20
2022-12-09T20:24:26.976Z,21.45
2022-12-09T20:26:56.117Z,14.93
2022-12-09T20:29:23.801Z,16.17
2022-12-09T20:31:51.687Z,15.68
2022-12-09T20:34:19.401Z,16.75
2022-12-09T20:36:47.313Z,17.38
2022-12-09T20:39:19.144Z,18.63
2022-12-09T20:41:48.435Z,18.10
2022-12-09T20:44:17.335Z,24.77
2022-12-09T20:46:47.834Z,35.83
2022-12-09T20:49:15.577Z,36.00
2022-12-09T20:51:48.704Z,26.77
2022-12-09T20:54:16.489Z,18.73
2022-12-09T20:56:44.206Z,18.30
2022-12-09T20:59:13.752Z,18.63
2022-12-09T21:01:42.275Z,14.95
2022-12-09T21:04:09.950Z,11.60
2022-12-09T21:06:40.396Z,9.18
2022-12-09T21:09:14.977Z,8.10
2022-12-09T21:11:42.592Z,8.67
2022-12-09T21:14:11.059Z,8.48
2022-12-09T21:16:41.425Z,7.72
2022-12-09T21:19:12.580Z,7.75
2022-12-09T21:21:42.182Z,12.32
2022-12-09T21:24:11.845Z,12.65
2022-12-09T21:26:40.947Z,19.08
2022-12-09T21:29:11.075Z,20.45
2022-12-09T21:31:41.181Z,22.33
2022-12-09T21:34:10.702Z,24.13
2022-12-09T21:36:41.562Z,25.38
2022-12-09T21:39:12.244Z,25.38
2022-12-09T21:41:40.064Z,26.00
2022-12-09T21:44:07.919Z,33.20
2022-12-09T21:46:37.202Z,51.00
2022-12-09T21:49:06.582Z,79.50
2022-12-09T21:51:35.203Z,35.30
2022-12-09T21:54:03.273Z,28.05
2022-12-09T21:56:33.660Z,25.30
2022-12-09T21:59:01.786Z,26.48
2022-12-09T22:01:42.048Z,23.83
2022-12-09T22:04:16.409Z,24.42
2022-12-09T22:06:49.529Z,24.20
2022-12-09T22:09:18.795Z,25.17
2022-12-09T22:11:46.823Z,25.50
2022-12-09T22:14:14.703Z,24.73
2022-12-09T22:16:44.599Z,23.65
2022-12-09T22:19:17.905Z,24.88
2022-12-09T22:21:46.451Z,24.05
2022-12-09T22:24:15.195Z,24.35
2022-12-09T22:26:46.040Z,24.00
2022-12-09T22:29:16.140Z,23.55
2022-12-09T22:31:44.452Z,24.13
2022-12-09T22:34:18.047Z,23.27
2022-12-09T22:36:47.528Z,23.38
2022-12-09T22:39:18.322Z,23.70
2022-12-09T22:41:46.255Z,24.58
2022-12-09T22:44:18.716Z,24.27
2022-12-09T22:46:47.579Z,24.25
2022-12-09T22:49:15.712Z,23.60
2022-12-09T22:51:45.263Z,25.35
2022-12-09T22:54:13.799Z,25.77
2022-12-09T22:56:42.894Z,33.50
2022-12-09T22:59:11.325Z,27.88
2022-12-09T23:01:39.197Z,28.63
2022-12-09T23:04:08.360Z,33.35
2022-12-09T23:06:38.718Z,37.85
2022-12-09T23:09:08.404Z,36.40
2022-12-09T23:11:37.079Z,26.80
2022-12-09T23:14:04.667Z,27.27
2022-12-09T23:16:32.787Z,33.22
2022-12-09T23:19:01.852Z,47.90
2022-12-09T23:21:32.677Z,48.50
2022-12-09T23:24:03.782Z,52.22
2022-12-09T23:26:34.001Z,67.57
2022-12-09T23:29:02.454Z,36.85
2022-12-09T23:31:32.801Z,47.30
2022-12-09T23:34:02.417Z,40.95
2022-12-09T23:36:45.390Z,40.40
2022-12-09T23:39:16.059Z,58.78
2022-12-09T23:41:45.206Z,34.08
2022-12-09T23:44:16.064Z,26.98
2022-12-09T23:46:44.191Z,28.95
2022-12-09T23:49:12.011Z,29.73
2022-12-09T23:51:43.998Z,31.05
2022-12-09T23:54:14.788Z,40.53
2022-12-09T23:56:46.385Z,34.65
2022-12-09T23:59:14.633Z,33.95
